sensor_id;sensor_type;location;lat;lon;timestamp;pressure;altitude;pressure_sealevel;temperature;humidity
68193;BME280;55012;47.562;18.414;2023-03-26T00:00:08;98864.28;;;6.34;100.00
68193;BME280;55012;47.562;18.414;2023-03-26T00:02:34;98870.00;;;6.32;100.00
68193;BME280;55012;47.562;18.414;2023-03-26T00:05:02;98856.13;;;6.30;100.00
68193;BME280;55012;47.562;18.414;2023-03-26T00:07:28;98853.56;;;6.34;100.00
68193;BME280;55012;47.562;18.414;2023-03-26T00:09:53;98851.31;;;6.36;100.00
68193;BME280;55012;47.562;18.414;2023-03-26T00:12:20;98847.22;;;6.38;100.00
68193;BME280;55012;47.562;18.414;2023-03-26T00:14:45;98839.28;;;6.42;100.00
68193;BME280;55012;47.562;18.414;2023-03-26T00:17:10;98838.63;;;6.45;100.00
68193;BME280;55012;47.562;18.414;2023-03-26T00:19:36;98831.81;;;6.47;100.00
68193;BME280;55012;47.562;18.414;2023-03-26T00:22:02;98830.69;;;6.48;100.00
68193;BME280;55012;47.562;18.414;2023-03-26T00:24:27;98822.31;;;6.50;100.00
68193;BME280;55012;47.562;18.414;2023-03-26T00:26:54;98812.22;;;6.47;100.00
68193;BME280;55012;47.562;18.414;2023-03-26T00:29:20;98806.25;;;6.41;100.00
68193;BME280;55012;47.562;18.414;2023-03-26T00:31:47;98804.06;;;6.35;100.00
68193;BME280;55012;47.562;18.414;2023-03-26T00:34:13;98788.97;;;6.30;100.00
68193;BME280;55012;47.562;18.414;2023-03-26T00:36:39;98779.97;;;6.26;100.00
68193;BME280;55012;47.562;18.414;2023-03-26T00:39:06;98749.19;;;6.24;100.00
68193;BME280;55012;47.562;18.414;2023-03-26T00:41:32;98730.22;;;6.20;100.00
68193;BME280;55012;47.562;18.414;2023-03-26T00:44:01;98705.28;;;6.19;100.00
68193;BME280;55012;47.562;18.414;2023-03-26T00:46:29;98665.66;;;6.16;100.00
68193;BME280;55012;47.562;18.414;2023-03-26T00:48:55;98609.16;;;6.13;100.00
68193;BME280;55012;47.562;18.414;2023-03-26T00:51:24;98535.88;;;6.12;100.00
68193;BME280;55012;47.562;18.414;2023-03-26T00:53:50;98026.03;;;6.11;100.00
68193;BME280;55012;47.562;18.414;2023-03-26T00:56:16;97780.50;;;6.08;100.00
68193;BME280;55012;47.562;18.414;2023-03-26T00:58:42;97778.19;;;6.07;100.00
68193;BME280;55012;47.562;18.414;2023-03-26T01:01:10;97772.38;;;6.05;100.00
68193;BME280;55012;47.562;18.414;2023-03-26T01:03:41;97768.47;;;6.02;100.00
68193;BME280;55012;47.562;18.414;2023-03-26T01:06:10;97760.78;;;6.01;100.00
68193;BME280;55012;47.562;18.414;2023-03-26T01:08:44;97761.91;;;6.00;100.00
68193;BME280;55012;47.562;18.414;2023-03-26T01:11:18;97756.91;;;5.98;100.00
68193;BME280;55012;47.562;18.414;2023-03-26T01:14:10;97758.03;;;5.97;100.00
68193;BME280;55012;47.562;18.414;2023-03-26T01:17:03;97755.66;;;5.96;100.00
68193;BME280;55012;47.562;18.414;2023-03-26T01:22:13;97753.59;;;5.89;100.00
68193;BME280;55012;47.562;18.414;2023-03-26T01:24:39;97751.25;;;5.87;100.00
68193;BME280;55012;47.562;18.414;2023-03-26T01:30:06;97746.94;;;5.83;100.00
68193;BME280;55012;47.562;18.414;2023-03-26T01:38:23;97748.84;;;5.82;100.00
68193;BME280;55012;47.562;18.414;2023-03-26T01:45:55;97749.97;;;5.81;100.00
68193;BME280;55012;47.562;18.414;2023-03-26T01:48:29;97755.69;;;5.80;100.00
68193;BME280;55012;47.562;18.414;2023-03-26T01:50:55;97765.66;;;5.79;100.00
68193;BME280;55012;47.562;18.414;2023-03-26T01:53:23;97757.16;;;5.77;100.00
68193;BME280;55012;47.562;18.414;2023-03-26T01:56:00;97766.44;;;5.80;100.00
68193;BME280;55012;47.562;18.414;2023-03-26T01:58:40;97756.81;;;5.79;100.00
68193;BME280;55012;47.562;18.414;2023-03-26T02:04:20;97759.16;;;5.96;100.00
68193;BME280;55012;47.562;18.414;2023-03-26T02:06:54;97777.25;;;5.99;100.00
68193;BME280;55012;47.562;18.414;2023-03-26T02:09:28;97792.31;;;5.88;100.00
68193;BME280;55012;47.562;18.414;2023-03-26T02:11:56;97790.66;;;5.83;100.00
68193;BME280;55012;47.562;18.414;2023-03-26T02:14:21;97783.63;;;5.79;100.00
68193;BME280;55012;47.562;18.414;2023-03-26T02:16:47;97788.22;;;5.78;100.00
68193;BME280;55012;47.562;18.414;2023-03-26T02:19:13;97787.91;;;5.80;100.00
68193;BME280;55012;47.562;18.414;2023-03-26T02:21:47;97782.53;;;5.80;100.00
68193;BME280;55012;47.562;18.414;2023-03-26T02:24:16;97789.53;;;5.84;100.00
68193;BME280;55012;47.562;18.414;2023-03-26T02:26:43;97789.09;;;5.82;100.00
68193;BME280;55012;47.562;18.414;2023-03-26T02:29:09;97784.44;;;5.79;100.00
68193;BME280;55012;47.562;18.414;2023-03-26T02:31:35;97775.94;;;5.77;100.00
68193;BME280;55012;47.562;18.414;2023-03-26T02:34:01;97783.63;;;5.79;100.00
68193;BME280;55012;47.562;18.414;2023-03-26T02:36:26;97778.72;;;5.81;100.00
68193;BME280;55012;47.562;18.414;2023-03-26T02:38:53;97771.94;;;5.87;100.00
68193;BME280;55012;47.562;18.414;2023-03-26T02:41:19;97782.00;;;5.90;100.00
68193;BME280;55012;47.562;18.414;2023-03-26T02:43:45;97793.19;;;5.92;100.00
68193;BME280;55012;47.562;18.414;2023-03-26T02:46:10;97797.78;;;5.91;100.00
68193;BME280;55012;47.562;18.414;2023-03-26T02:48:36;97816.88;;;5.90;100.00
68193;BME280;55012;47.562;18.414;2023-03-26T02:51:02;97814.88;;;5.87;100.00
68193;BME280;55012;47.562;18.414;2023-03-26T02:53:29;97827.44;;;5.83;100.00
68193;BME280;55012;47.562;18.414;2023-03-26T02:55:55;97827.69;;;5.78;100.00
68193;BME280;55012;47.562;18.414;2023-03-26T02:58:21;97831.00;;;5.71;100.00
68193;BME280;55012;47.562;18.414;2023-03-26T03:00:50;97825.00;;;5.62;100.00
68193;BME280;55012;47.562;18.414;2023-03-26T03:03:20;97829.97;;;5.60;100.00
68193;BME280;55012;47.562;18.414;2023-03-26T03:05:49;97828.66;;;5.54;100.00
68193;BME280;55012;47.562;18.414;2023-03-26T03:08:20;97820.94;;;5.52;100.00
68193;BME280;55012;47.562;18.414;2023-03-26T03:11:00;97812.13;;;5.52;100.00
68193;BME280;55012;47.562;18.414;2023-03-26T03:13:26;97813.25;;;5.51;100.00
68193;BME280;55012;47.562;18.414;2023-03-26T03:15:53;97807.03;;;5.47;100.00
68193;BME280;55012;47.562;18.414;2023-03-26T03:18:18;97807.03;;;5.47;100.00
68193;BME280;55012;47.562;18.414;2023-03-26T03:20:45;97807.72;;;5.44;100.00
68193;BME280;55012;47.562;18.414;2023-03-26T03:23:11;97816.81;;;5.39;100.00
68193;BME280;55012;47.562;18.414;2023-03-26T03:25:36;97826.66;;;5.35;100.00
68193;BME280;55012;47.562;18.414;2023-03-26T03:28:03;97813.50;;;5.30;100.00
68193;BME280;55012;47.562;18.414;2023-03-26T03:30:29;97812.63;;;5.26;100.00
68193;BME280;55012;47.562;18.414;2023-03-26T03:32:54;97814.34;;;5.18;100.00
68193;BME280;55012;47.562;18.414;2023-03-26T03:35:23;97808.22;;;5.18;100.00
68193;BME280;55012;47.562;18.414;2023-03-26T03:37:49;97805.53;;;5.18;100.00
68193;BME280;55012;47.562;18.414;2023-03-26T03:40:14;97802.44;;;5.31;100.00
68193;BME280;55012;47.562;18.414;2023-03-26T03:42:40;97792.94;;;5.50;100.00
68193;BME280;55012;47.562;18.414;2023-03-26T03:45:06;97804.84;;;5.52;100.00
68193;BME280;55012;47.562;18.414;2023-03-26T03:47:31;97823.28;;;5.54;100.00
68193;BME280;55012;47.562;18.414;2023-03-26T03:49:57;97835.25;;;5.56;100.00
68193;BME280;55012;47.562;18.414;2023-03-26T03:52:25;97855.16;;;5.55;100.00
68193;BME280;55012;47.562;18.414;2023-03-26T03:54:51;97869.66;;;5.54;100.00
68193;BME280;55012;47.562;18.414;2023-03-26T03:57:17;97874.59;;;5.52;100.00
68193;BME280;55012;47.562;18.414;2023-03-26T03:59:43;97881.88;;;5.52;100.00
68193;BME280;55012;47.562;18.414;2023-03-26T04:02:09;97889.91;;;5.52;100.00
68193;BME280;55012;47.562;18.414;2023-03-26T04:04:35;97891.38;;;5.49;100.00
68193;BME280;55012;47.562;18.414;2023-03-26T04:07:02;97889.47;;;5.50;100.00
68193;BME280;55012;47.562;18.414;2023-03-26T04:09:28;97895.28;;;5.52;100.00
68193;BME280;55012;47.562;18.414;2023-03-26T04:11:54;97893.03;;;5.54;100.00
68193;BME280;55012;47.562;18.414;2023-03-26T04:14:19;97893.03;;;5.54;100.00
68193;BME280;55012;47.562;18.414;2023-03-26T04:16:45;97894.00;;;5.61;100.00
68193;BME280;55012;47.562;18.414;2023-03-26T04:19:13;97894.59;;;5.71;100.00
68193;BME280;55012;47.562;18.414;2023-03-26T04:21:39;97904.13;;;5.84;100.00
68193;BME280;55012;47.562;18.414;2023-03-26T04:24:07;97912.81;;;5.93;100.00
68193;BME280;55012;47.562;18.414;2023-03-26T04:26:33;97941.59;;;6.08;100.00
68193;BME280;55012;47.562;18.414;2023-03-26T04:29:03;97980.56;;;6.18;100.00
68193;BME280;55012;47.562;18.414;2023-03-26T04:31:29;98046.75;;;6.26;100.00
68193;BME280;55012;47.562;18.414;2023-03-26T04:33:58;98275.56;;;6.32;100.00
68193;BME280;55012;47.562;18.414;2023-03-26T04:36:30;98585.50;;;6.39;100.00
68193;BME280;55012;47.562;18.414;2023-03-26T04:38:59;98845.88;;;6.44;100.00
68193;BME280;55012;47.562;18.414;2023-03-26T04:41:27;98943.88;;;6.47;100.00
68193;BME280;55012;47.562;18.414;2023-03-26T04:43:54;99027.78;;;6.53;100.00
68193;BME280;55012;47.562;18.414;2023-03-26T04:46:20;99054.03;;;6.56;100.00
68193;BME280;55012;47.562;18.414;2023-03-26T04:48:49;99076.78;;;6.58;100.00
68193;BME280;55012;47.562;18.414;2023-03-26T04:51:16;99089.75;;;6.56;100.00
68193;BME280;55012;47.562;18.414;2023-03-26T04:53:58;99096.69;;;6.57;100.00
68193;BME280;55012;47.562;18.414;2023-03-26T04:56:53;99105.84;;;6.65;100.00
68193;BME280;55012;47.562;18.414;2023-03-26T04:59:27;99112.31;;;6.72;100.00
68193;BME280;55012;47.562;18.414;2023-03-26T05:01:57;99120.34;;;6.81;100.00
68193;BME280;55012;47.562;18.414;2023-03-26T05:04:24;99141.47;;;6.91;100.00
68193;BME280;55012;47.562;18.414;2023-03-26T05:06:53;99154.09;;;6.99;100.00
68193;BME280;55012;47.562;18.414;2023-03-26T05:09:19;99175.91;;;7.07;100.00
68193;BME280;55012;47.562;18.414;2023-03-26T05:11:44;99193.13;;;7.14;100.00
68193;BME280;55012;47.562;18.414;2023-03-26T05:14:10;99199.59;;;7.22;100.00
68193;BME280;55012;47.562;18.414;2023-03-26T05:16:36;99200.81;;;7.33;100.00
68193;BME280;55012;47.562;18.414;2023-03-26T05:19:01;99208.38;;;7.40;100.00
68193;BME280;55012;47.562;18.414;2023-03-26T05:21:27;99211.03;;;7.48;100.00
68193;BME280;55012;47.562;18.414;2023-03-26T05:23:52;99224.44;;;7.57;100.00
68193;BME280;55012;47.562;18.414;2023-03-26T05:26:18;99217.44;;;7.65;100.00
68193;BME280;55012;47.562;18.414;2023-03-26T05:28:44;99225.00;;;7.71;100.00
68193;BME280;55012;47.562;18.414;2023-03-26T05:31:10;99231.44;;;7.79;100.00
68193;BME280;55012;47.562;18.414;2023-03-26T05:33:35;99237.56;;;7.88;100.00
68193;BME280;55012;47.562;18.414;2023-03-26T05:36:06;99234.94;;;8.00;100.00
68193;BME280;55012;47.562;18.414;2023-03-26T05:38:34;99235.03;;;8.12;100.00
68193;BME280;55012;47.562;18.414;2023-03-26T05:41:04;99232.72;;;8.23;100.00
68193;BME280;55012;47.562;18.414;2023-03-26T05:43:31;99239.78;;;8.36;100.00
68193;BME280;55012;47.562;18.414;2023-03-26T05:45:56;99242.28;;;8.41;100.00
68193;BME280;55012;47.562;18.414;2023-03-26T05:48:22;99239.47;;;8.38;100.00
68193;BME280;55012;47.562;18.414;2023-03-26T05:50:49;99244.06;;;8.37;100.00
68193;BME280;55012;47.562;18.414;2023-03-26T05:53:15;99241.06;;;8.30;100.00
68193;BME280;55012;47.562;18.414;2023-03-26T05:55:43;99239.69;;;8.24;100.00
68193;BME280;55012;47.562;18.414;2023-03-26T05:58:11;99234.31;;;8.24;100.00
68193;BME280;55012;47.562;18.414;2023-03-26T06:00:37;99229.84;;;8.28;100.00
68193;BME280;55012;47.562;18.414;2023-03-26T06:03:03;99235.97;;;8.37;100.00
68193;BME280;55012;47.562;18.414;2023-03-26T06:05:31;99223.41;;;8.41;100.00
68193;BME280;55012;47.562;18.414;2023-03-26T06:07:57;99236.47;;;8.52;100.00
68193;BME280;55012;47.562;18.414;2023-03-26T06:10:23;99231.94;;;8.64;100.00
68193;BME280;55012;47.562;18.414;2023-03-26T06:12:48;99224.69;;;8.77;100.00
68193;BME280;55012;47.562;18.414;2023-03-26T06:15:14;99237.94;;;8.82;100.00
68193;BME280;55012;47.562;18.414;2023-03-26T06:17:39;99226.38;;;8.82;100.00
68193;BME280;55012;47.562;18.414;2023-03-26T06:20:05;99214.69;;;8.78;100.00
68193;BME280;55012;47.562;18.414;2023-03-26T06:22:31;99210.53;;;8.80;100.00
68193;BME280;55012;47.562;18.414;2023-03-26T06:24:57;99203.41;;;8.76;100.00
68193;BME280;55012;47.562;18.414;2023-03-26T06:27:22;99184.63;;;8.67;100.00
68193;BME280;55012;47.562;18.414;2023-03-26T06:29:48;99178.78;;;8.65;100.00
68193;BME280;55012;47.562;18.414;2023-03-26T06:32:13;99174.84;;;8.62;100.00
68193;BME280;55012;47.562;18.414;2023-03-26T06:34:39;99191.13;;;8.66;100.00
68193;BME280;55012;47.562;18.414;2023-03-26T06:37:05;99187.13;;;8.72;100.00
68193;BME280;55012;47.562;18.414;2023-03-26T06:39:31;99188.25;;;8.83;100.00
68193;BME280;55012;47.562;18.414;2023-03-26T06:41:56;99183.00;;;8.99;100.00
68193;BME280;55012;47.562;18.414;2023-03-26T06:44:22;99194.16;;;9.10;100.00
68193;BME280;55012;47.562;18.414;2023-03-26T06:46:47;99186.06;;;9.10;100.00
68193;BME280;55012;47.562;18.414;2023-03-26T06:49:13;99182.25;;;9.11;100.00
68193;BME280;55012;47.562;18.414;2023-03-26T06:51:38;99187.53;;;9.19;100.00
68193;BME280;55012;47.562;18.414;2023-03-26T06:54:05;99178.56;;;9.27;100.00
68193;BME280;55012;47.562;18.414;2023-03-26T06:56:31;99191.38;;;9.31;100.00
68193;BME280;55012;47.562;18.414;2023-03-26T06:58:56;99151.09;;;9.25;100.00
68193;BME280;55012;47.562;18.414;2023-03-26T07:01:22;99162.91;;;9.33;100.00
68193;BME280;55012;47.562;18.414;2023-03-26T07:03:47;99159.78;;;9.43;100.00
68193;BME280;55012;47.562;18.414;2023-03-26T07:06:13;99154.34;;;9.55;100.00
68193;BME280;55012;47.562;18.414;2023-03-26T07:08:38;99135.19;;;9.73;100.00
68193;BME280;55012;47.562;18.414;2023-03-26T07:11:04;99150.09;;;9.95;100.00
68193;BME280;55012;47.562;18.414;2023-03-26T07:13:30;99134.97;;;10.06;100.00
68193;BME280;55012;47.562;18.414;2023-03-26T07:15:55;99133.50;;;10.08;100.00
68193;BME280;55012;47.562;18.414;2023-03-26T07:18:21;99108.06;;;10.09;100.00
68193;BME280;55012;47.562;18.414;2023-03-26T07:20:46;99106.19;;;10.26;100.00
68193;BME280;55012;47.562;18.414;2023-03-26T07:23:12;99104.75;;;10.44;100.00
68193;BME280;55012;47.562;18.414;2023-03-26T07:25:40;99095.78;;;10.56;100.00
68193;BME280;55012;47.562;18.414;2023-03-26T07:28:23;99092.84;;;10.77;100.00
68193;BME280;55012;47.562;18.414;2023-03-26T07:30:58;99079.13;;;10.85;100.00
68193;BME280;55012;47.562;18.414;2023-03-26T07:33:55;99067.16;;;10.86;100.00
68193;BME280;55012;47.562;18.414;2023-03-26T07:39:37;99060.66;;;11.07;100.00
68193;BME280;55012;47.562;18.414;2023-03-26T07:42:21;99070.63;;;11.18;100.00
68193;BME280;55012;47.562;18.414;2023-03-26T07:45:08;99069.19;;;11.24;100.00
68193;BME280;55012;47.562;18.414;2023-03-26T07:47:40;99056.94;;;11.31;100.00
68193;BME280;55012;47.562;18.414;2023-03-26T07:50:07;99053.53;;;11.34;100.00
68193;BME280;55012;47.562;18.414;2023-03-26T07:52:38;99063.97;;;11.51;100.00
68193;BME280;55012;47.562;18.414;2023-03-26T07:55:04;99053.63;;;11.57;100.00
68193;BME280;55012;47.562;18.414;2023-03-26T08:00:18;99022.75;;;11.42;100.00
68193;BME280;55012;47.562;18.414;2023-03-26T08:05:36;99001.19;;;11.10;100.00
68193;BME280;55012;47.562;18.414;2023-03-26T08:08:17;98992.41;;;10.97;100.00
68193;BME280;55012;47.562;18.414;2023-03-26T08:19:44;99027.44;;;10.75;100.00
68193;BME280;55012;47.562;18.414;2023-03-26T08:22:20;99037.41;;;10.86;100.00
68193;BME280;55012;47.562;18.414;2023-03-26T08:25:00;99037.88;;;11.08;100.00
68193;BME280;55012;47.562;18.414;2023-03-26T08:30:21;99047.63;;;11.47;100.00
68193;BME280;55012;47.562;18.414;2023-03-26T08:33:17;99025.44;;;11.42;100.00
68193;BME280;55012;47.562;18.414;2023-03-26T08:35:44;99021.31;;;11.29;100.00
68193;BME280;55012;47.562;18.414;2023-03-26T08:38:11;99023.31;;;11.32;100.00
68193;BME280;55012;47.562;18.414;2023-03-26T08:52:10;98973.97;;;12.00;100.00
68193;BME280;55012;47.562;18.414;2023-03-26T08:54:47;98982.06;;;12.19;100.00
68193;BME280;55012;47.562;18.414;2023-03-26T09:08:27;98907.63;;;12.66;100.00
68193;BME280;55012;47.562;18.414;2023-03-26T09:41:16;98624.13;;;13.52;100.00
68193;BME280;55012;47.562;18.414;2023-03-26T09:55:03;98582.94;;;13.43;100.00
68193;BME280;55012;47.562;18.414;2023-03-26T09:57:48;98579.34;;;13.25;100.00
68193;BME280;55012;47.562;18.414;2023-03-26T10:06:40;98566.28;;;13.52;100.00
68193;BME280;55012;47.562;18.414;2023-03-26T10:09:16;98543.50;;;13.81;100.00
68193;BME280;55012;47.562;18.414;2023-03-26T10:17:30;98372.66;;;14.12;100.00
68193;BME280;55012;47.562;18.414;2023-03-26T10:26:13;98266.63;;;13.87;100.00
68193;BME280;55012;47.562;18.414;2023-03-26T10:37:32;98250.97;;;14.37;100.00
68193;BME280;55012;47.562;18.414;2023-03-26T10:40:21;98299.97;;;14.26;100.00
68193;BME280;55012;47.562;18.414;2023-03-26T10:48:52;98327.59;;;14.07;100.00
68193;BME280;55012;47.562;18.414;2023-03-26T10:54:07;98425.88;;;14.30;100.00
68193;BME280;55012;47.562;18.414;2023-03-26T10:56:39;98437.91;;;14.22;100.00
68193;BME280;55012;47.562;18.414;2023-03-26T10:59:11;98469.38;;;14.13;100.00
68193;BME280;55012;47.562;18.414;2023-03-26T11:02:21;98458.53;;;14.23;100.00
68193;BME280;55012;47.562;18.414;2023-03-26T11:05:02;98487.31;;;14.31;100.00
68193;BME280;55012;47.562;18.414;2023-03-26T11:10:30;98495.84;;;14.26;100.00
68193;BME280;55012;47.562;18.414;2023-03-26T11:21:07;98509.09;;;14.92;100.00
68193;BME280;55012;47.562;18.414;2023-03-26T11:23:39;98522.25;;;15.18;100.00
68193;BME280;55012;47.562;18.414;2023-03-26T11:26:14;98511.25;;;15.58;100.00
68193;BME280;55012;47.562;18.414;2023-03-26T11:34:03;98549.47;;;15.29;100.00
68193;BME280;55012;47.562;18.414;2023-03-26T11:36:37;98521.88;;;15.13;100.00
68193;BME280;55012;47.562;18.414;2023-03-26T11:39:10;98534.28;;;15.39;100.00
68193;BME280;55012;47.562;18.414;2023-03-26T11:41:38;98529.13;;;15.77;100.00
68193;BME280;55012;47.562;18.414;2023-03-26T11:44:22;98521.66;;;15.91;100.00
68193;BME280;55012;47.562;18.414;2023-03-26T11:46:54;98527.53;;;15.79;100.00
68193;BME280;55012;47.562;18.414;2023-03-26T11:49:25;98511.50;;;15.88;100.00
68193;BME280;55012;47.562;18.414;2023-03-26T11:51:53;98500.94;;;16.01;100.00
68193;BME280;55012;47.562;18.414;2023-03-26T11:54:19;98501.13;;;16.32;100.00
68193;BME280;55012;47.562;18.414;2023-03-26T11:57:21;98487.19;;;16.67;100.00
68193;BME280;55012;47.562;18.414;2023-03-26T11:59:55;98476.97;;;16.78;100.00
68193;BME280;55012;47.562;18.414;2023-03-26T12:02:37;98476.72;;;17.07;100.00
68193;BME280;55012;47.562;18.414;2023-03-26T12:05:17;98458.44;;;17.34;100.00
68193;BME280;55012;47.562;18.414;2023-03-26T12:08:08;98465.19;;;17.57;100.00
68193;BME280;55012;47.562;18.414;2023-03-26T12:10:50;98453.19;;;17.81;100.00
68193;BME280;55012;47.562;18.414;2023-03-26T12:13:37;98441.88;;;17.79;100.00
68193;BME280;55012;47.562;18.414;2023-03-26T12:16:13;98451.88;;;17.59;100.00
68193;BME280;55012;47.562;18.414;2023-03-26T12:18:40;98435.94;;;17.23;100.00
68193;BME280;55012;47.562;18.414;2023-03-26T12:21:26;98436.94;;;17.02;100.00
68193;BME280;55012;47.562;18.414;2023-03-26T12:24:02;98438.22;;;16.91;100.00
68193;BME280;55012;47.562;18.414;2023-03-26T12:26:39;98423.53;;;16.77;100.00
68193;BME280;55012;47.562;18.414;2023-03-26T12:29:14;98422.19;;;16.55;100.00
68193;BME280;55012;47.562;18.414;2023-03-26T12:32:05;98422.97;;;16.52;100.00
68193;BME280;55012;47.562;18.414;2023-03-26T12:34:33;98410.44;;;16.58;100.00
68193;BME280;55012;47.562;18.414;2023-03-26T12:37:00;98408.75;;;16.71;100.00
68193;BME280;55012;47.562;18.414;2023-03-26T12:42:00;98398.56;;;17.13;100.00
68193;BME280;55012;47.562;18.414;2023-03-26T12:44:45;98393.88;;;17.13;100.00
68193;BME280;55012;47.562;18.414;2023-03-26T12:47:29;98390.44;;;17.06;100.00
68193;BME280;55012;47.562;18.414;2023-03-26T12:49:57;98382.25;;;17.06;100.00
68193;BME280;55012;47.562;18.414;2023-03-26T12:55:21;98370.50;;;17.09;100.00
68193;BME280;55012;47.562;18.414;2023-03-26T13:05:56;98370.97;;;16.63;100.00
68193;BME280;55012;47.562;18.414;2023-03-26T13:13:59;98355.25;;;16.77;100.00
68193;BME280;55012;47.562;18.414;2023-03-26T13:16:54;98351.44;;;16.68;100.00
68193;BME280;55012;47.562;18.414;2023-03-26T13:19:27;98328.69;;;16.81;100.00
68193;BME280;55012;47.562;18.414;2023-03-26T13:37:25;98293.00;;;17.77;100.00
68193;BME280;55012;47.562;18.414;2023-03-26T13:40:14;98294.66;;;17.44;100.00
68193;BME280;55012;47.562;18.414;2023-03-26T13:48:05;98291.22;;;16.82;100.00
68193;BME280;55012;47.562;18.414;2023-03-26T13:50:36;98278.34;;;16.79;100.00
68193;BME280;55012;47.562;18.414;2023-03-26T13:55:41;98281.19;;;16.72;100.00
68193;BME280;55012;47.562;18.414;2023-03-26T13:58:21;98257.84;;;16.64;100.00
68193;BME280;55012;47.562;18.414;2023-03-26T14:01:11;98279.72;;;16.60;100.00
68193;BME280;55012;47.562;18.414;2023-03-26T14:03:57;98283.94;;;16.68;100.00
68193;BME280;55012;47.562;18.414;2023-03-26T14:09:45;98265.44;;;16.83;100.00
68193;BME280;55012;47.562;18.414;2023-03-26T14:31:27;98244.97;;;22.41;100.00
68193;BME280;55012;47.562;18.414;2023-03-26T14:34:10;98252.13;;;24.31;100.00
68193;BME280;55012;47.562;18.414;2023-03-26T14:55:04;98232.31;;;27.14;78.79
68193;BME280;55012;47.562;18.414;2023-03-26T15:00:33;98226.97;;;29.74;66.48
68193;BME280;55012;47.562;18.414;2023-03-26T15:13:42;98205.31;;;30.11;59.36
68193;BME280;55012;47.562;18.414;2023-03-26T15:27:23;98191.75;;;28.39;61.44
68193;BME280;55012;47.562;18.414;2023-03-26T15:36:15;98183.03;;;27.09;67.48
68193;BME280;55012;47.562;18.414;2023-03-26T15:47:18;98155.28;;;25.19;84.49
68193;BME280;55012;47.562;18.414;2023-03-26T15:53:32;98132.63;;;23.17;98.92
68193;BME280;55012;47.562;18.414;2023-03-26T16:01:43;98113.72;;;20.87;100.00
68193;BME280;55012;47.562;18.414;2023-03-26T16:16:55;98071.97;;;18.08;100.00
68193;BME280;55012;47.562;18.414;2023-03-26T16:21:53;98076.03;;;17.60;100.00
68193;BME280;55012;47.562;18.414;2023-03-26T16:24:23;98071.94;;;17.48;100.00
68193;BME280;55012;47.562;18.414;2023-03-26T16:32:34;98054.69;;;16.84;100.00
68193;BME280;55012;47.562;18.414;2023-03-26T16:35:02;98058.84;;;16.69;100.00
68193;BME280;55012;47.562;18.414;2023-03-26T16:51:52;98055.28;;;15.88;100.00
68193;BME280;55012;47.562;18.414;2023-03-26T16:57:24;98055.50;;;15.70;100.00
68193;BME280;55012;47.562;18.414;2023-03-26T17:02:56;98070.63;;;15.37;100.00
68193;BME280;55012;47.562;18.414;2023-03-26T17:05:56;98066.81;;;15.27;100.00
68193;BME280;55012;47.562;18.414;2023-03-26T17:16:23;98055.72;;;15.07;100.00
68193;BME280;55012;47.562;18.414;2023-03-26T17:22:13;98056.16;;;15.02;100.00
68193;BME280;55012;47.562;18.414;2023-03-26T17:24:58;98056.56;;;15.01;100.00
68193;BME280;55012;47.562;18.414;2023-03-26T17:27:45;98054.63;;;15.01;100.00
68193;BME280;55012;47.562;18.414;2023-03-26T17:32:58;98049.94;;;15.02;100.00
68193;BME280;55012;47.562;18.414;2023-03-26T17:40:57;98062.38;;;15.03;100.00
68193;BME280;55012;47.562;18.414;2023-03-26T17:43:51;98062.78;;;15.01;100.00
68193;BME280;55012;47.562;18.414;2023-03-26T17:46:49;98058.94;;;14.99;100.00
68193;BME280;55012;47.562;18.414;2023-03-26T17:49:18;98057.81;;;14.93;100.00
68193;BME280;55012;47.562;18.414;2023-03-26T17:51:49;98050.47;;;14.86;100.00
68193;BME280;55012;47.562;18.414;2023-03-26T17:54:27;98046.25;;;14.81;100.00
68193;BME280;55012;47.562;18.414;2023-03-26T17:57:01;98040.81;;;14.78;100.00
68193;BME280;55012;47.562;18.414;2023-03-26T17:59:28;98036.59;;;14.73;100.00
68193;BME280;55012;47.562;18.414;2023-03-26T18:01:59;98033.88;;;14.70;100.00
68193;BME280;55012;47.562;18.414;2023-03-26T18:04:34;98034.31;;;14.65;100.00
68193;BME280;55012;47.562;18.414;2023-03-26T18:17:48;98017.69;;;14.52;100.00
68193;BME280;55012;47.562;18.414;2023-03-26T18:22:44;98016.16;;;14.47;100.00
68193;BME280;55012;47.562;18.414;2023-03-26T18:25:38;98011.88;;;14.46;100.00
68193;BME280;55012;47.562;18.414;2023-03-26T18:28:05;98002.97;;;14.39;100.00
68193;BME280;55012;47.562;18.414;2023-03-26T18:30:31;98003.38;;;14.37;100.00
68193;BME280;55012;47.562;18.414;2023-03-26T18:33:11;97998.75;;;14.34;100.00
68193;BME280;55012;47.562;18.414;2023-03-26T18:35:43;97991.75;;;14.33;100.00
68193;BME280;55012;47.562;18.414;2023-03-26T18:38:16;97987.88;;;14.30;100.00
68193;BME280;55012;47.562;18.414;2023-03-26T18:40:44;97980.47;;;14.31;100.00
68193;BME280;55012;47.562;18.414;2023-03-26T18:43:17;97971.94;;;14.29;100.00
68193;BME280;55012;47.562;18.414;2023-03-26T18:45:46;97968.88;;;14.27;100.00
68193;BME280;55012;47.562;18.414;2023-03-26T18:50:42;97967.75;;;14.21;100.00
68193;BME280;55012;47.562;18.414;2023-03-26T18:53:17;97955.34;;;14.16;100.00
68193;BME280;55012;47.562;18.414;2023-03-26T18:55:45;97950.69;;;14.13;100.00
68193;BME280;55012;47.562;18.414;2023-03-26T19:00:46;97951.50;;;14.06;100.00
68193;BME280;55012;47.562;18.414;2023-03-26T19:03:15;97939.13;;;14.02;100.00
68193;BME280;55012;47.562;18.414;2023-03-26T19:05:45;97930.59;;;14.00;100.00
68193;BME280;55012;47.562;18.414;2023-03-26T19:08:11;97923.63;;;13.95;100.00
68193;BME280;55012;47.562;18.414;2023-03-26T19:10:37;97905.00;;;13.94;100.00